Time;durP1;ratioP1;P1;durP2;ratioP2;P2;SDS_P1;SDS_P2;PMS_P1;PMS_P2;Temp;Humidity;BMP_temperature;BMP_pressure;BME280_temperature;BME280_humidity;BME280_pressure;Samples;Min_cycle;Max_cycle;Signal;HPM_P1;HPM_P2
2022/07/27 00:00:04;;;;;;;4.30;2.00;;;;;;;18.88;67.77;100123.38;4989074;28;20184;-72
2022/07/27 00:02:29;;;;;;;3.23;2.07;;;;;;;18.81;68.89;100130.91;4963356;28;20238;-72
2022/07/27 00:04:54;;;;;;;2.07;1.60;;;;;;;18.73;69.48;100133.38;4974312;28;20215;-73
2022/07/27 00:07:20;;;;;;;1.70;1.47;;;;;;;18.68;70.25;100132.94;4974318;28;20310;-72
2022/07/27 00:09:45;;;;;;;3.73;1.87;;;;;;;18.69;70.97;100132.81;4972381;28;20603;-72
2022/07/27 00:12:10;;;;;;;1.87;1.47;;;;;;;18.65;71.40;100133.22;4964504;28;20246;-72
2022/07/27 00:14:36;;;;;;;3.03;1.60;;;;;;;18.55;72.10;100133.22;4973061;28;20541;-72
2022/07/27 00:17:01;;;;;;;1.80;1.27;;;;;;;18.52;72.80;100131.69;4974245;28;20239;-73
2022/07/27 00:19:26;;;;;;;1.43;1.30;;;;;;;18.38;73.47;100132.06;4972203;28;20188;-73
2022/07/27 00:21:52;;;;;;;2.23;1.20;;;;;;;18.35;74.24;100127.94;4977273;28;20238;-72
2022/07/27 00:24:17;;;;;;;3.20;1.33;;;;;;;18.35;74.61;100127.13;4988429;28;20186;-73
2022/07/27 00:26:42;;;;;;;2.47;1.33;;;;;;;18.30;75.28;100126.72;4973054;28;20184;-72
2022/07/27 00:29:08;;;;;;;3.03;1.47;;;;;;;18.32;75.55;100127.38;4971901;28;20211;-73
2022/07/27 00:31:33;;;;;;;2.23;1.53;;;;;;;18.29;75.80;100131.09;4974974;28;20576;-72
2022/07/27 00:33:59;;;;;;;4.43;1.80;;;;;;;18.33;75.71;100123.84;4972240;28;20924;-74
2022/07/27 00:36:24;;;;;;;2.70;1.60;;;;;;;18.30;76.13;100129.31;4972266;28;20188;-72
2022/07/27 00:38:50;;;;;;;2.57;1.73;;;;;;;18.21;76.76;100126.56;4972957;28;20196;-73
2022/07/27 00:41:15;;;;;;;1.50;1.30;;;;;;;18.12;78.20;100132.56;4951646;28;20223;-73
2022/07/27 00:43:54;;;;;;;1.67;1.30;;;;;;;18.01;78.52;100128.28;4979289;28;20183;-73
2022/07/27 00:46:20;;;;;;;1.20;1.10;;;;;;;17.98;79.20;100127.72;4971964;28;20235;-73
2022/07/27 00:48:46;;;;;;;2.40;1.20;;;;;;;18.10;78.99;100125.81;4973739;28;20639;-74
2022/07/27 00:51:14;;;;;;;4.40;1.37;;;;;;;18.17;78.28;100121.72;4981131;28;20262;-74
2022/07/27 00:53:39;;;;;;;3.10;1.20;;;;;;;18.18;78.47;100123.38;4988371;28;20176;-73
2022/07/27 00:56:05;;;;;;;2.87;1.20;;;;;;;18.21;78.19;100126.56;4973041;28;20242;-73
2022/07/27 00:58:31;;;;;;;1.57;1.47;;;;;;;18.26;77.89;100127.94;4973054;28;20196;-73
2022/07/27 01:00:56;;;;;;;1.37;1.10;;;;;;;18.24;78.28;100130.66;4969706;28;20253;-74
2022/07/27 01:03:21;;;;;;;1.20;1.10;;;;;;;18.25;78.44;100131.50;4981393;28;20250;-74
2022/07/27 01:05:47;;;;;;;4.30;1.40;;;;;;;18.18;79.22;100123.38;4971789;28;20669;-73
2022/07/27 01:08:13;;;;;;;2.10;1.00;;;;;;;18.21;78.66;100131.75;4971354;28;20235;-73
2022/07/27 01:10:39;;;;;;;3.33;1.07;;;;;;;18.31;78.19;100131.78;4964431;28;20686;-73
2022/07/27 01:13:04;;;;;;;1.50;1.17;;;;;;;18.30;78.52;100129.31;4988270;28;20247;-75
2022/07/27 01:15:32;;;;;;;2.60;1.13;;;;;;;18.39;78.04;100126.75;4973386;28;20598;-74
2022/07/27 01:17:58;;;;;;;1.80;1.33;;;;;;;18.56;77.26;100129.66;4971921;28;20188;-73
2022/07/27 01:20:23;;;;;;;1.40;1.30;;;;;;;18.63;76.65;100135.97;4965249;28;20664;-74
2022/07/27 01:22:48;;;;;;;1.20;1.10;;;;;;;18.53;76.56;100138.56;4985395;28;20660;-74
2022/07/27 01:25:14;;;;;;;1.30;1.00;;;;;;;18.48;76.96;100140.75;4971510;28;20238;-74
2022/07/27 01:27:39;;;;;;;1.40;1.30;;;;;;;18.55;76.87;100135.81;4973218;28;20584;-73
2022/07/27 01:32:50;;;;;;;3.70;1.27;;;;;;;18.59;76.53;100133.75;4985145;28;20246;-74
2022/07/27 01:35:15;;;;;;;0.90;0.83;;;;;;;18.61;76.55;100137.06;4972056;28;20271;-74
2022/07/27 01:37:40;;;;;;;2.07;1.20;;;;;;;18.55;77.03;100143.63;4975549;28;20180;-74
2022/07/27 01:40:06;;;;;;;1.70;1.20;;;;;;;18.35;78.00;100134.94;4959814;28;20187;-73
2022/07/27 01:42:32;;;;;;;1.37;1.27;;;;;;;18.26;78.67;100131.38;4970021;28;20288;-73
2022/07/27 01:44:57;;;;;;;0.93;0.93;;;;;;;18.22;79.44;100127.38;4976621;28;20617;-74
2022/07/27 01:47:22;;;;;;;1.87;1.20;;;;;;;18.28;79.40;100134.63;4975528;28;20191;-74
2022/07/27 01:49:48;;;;;;;5.03;1.60;;;;;;;18.36;78.80;100134.00;4976557;28;20176;-74
2022/07/27 01:52:13;;;;;;;1.60;1.23;;;;;;;18.19;80.08;100135.44;4981799;28;20235;-74
2022/07/27 01:54:38;;;;;;;1.63;0.90;;;;;;;18.11;80.87;100132.69;4975341;28;20295;-74
2022/07/27 01:57:04;;;;;;;2.87;1.40;;;;;;;18.14;80.63;100128.03;4976517;28;20231;-73
2022/07/27 01:59:29;;;;;;;2.17;1.17;;;;;;;18.02;81.80;100131.69;4974774;28;20266;-72
2022/07/27 02:01:54;;;;;;;2.93;1.40;;;;;;;17.90;82.47;100126.53;4980348;28;20317;-74
2022/07/27 02:04:22;;;;;;;1.23;1.10;;;;;;;17.75;83.86;100122.66;4974805;28;20246;-74
2022/07/27 02:06:47;;;;;;;1.37;0.90;;;;;;;17.75;84.76;100131.28;4974726;28;20192;-74
2022/07/27 02:09:12;;;;;;;1.90;1.50;;;;;;;17.75;85.24;100126.06;4974425;28;20226;-74
2022/07/27 02:14:21;;;;;;;2.10;1.50;;;;;;;17.87;83.94;100116.41;4976900;28;20183;-73
2022/07/27 02:16:47;;;;;;;1.20;1.10;;;;;;;17.74;84.68;100119.22;4990916;28;20184;-73
2022/07/27 02:19:12;;;;;;;1.80;1.10;;;;;;;17.70;85.87;100122.19;4976229;28;20179;-74
2022/07/27 02:21:38;;;;;;;2.17;1.20;;;;;;;17.67;86.08;100112.88;4978549;28;20238;-74
2022/07/27 02:24:03;;;;;;;1.70;1.23;;;;;;;17.68;86.40;100117.13;4979309;28;20184;-74
2022/07/27 02:26:29;;;;;;;3.00;1.30;;;;;;;17.67;86.33;100117.28;4974768;28;20667;-74
2022/07/27 02:28:54;;;;;;;3.60;1.30;;;;;;;17.56;86.60;100115.56;4974105;28;20264;-72
2022/07/27 02:31:19;;;;;;;1.70;1.10;;;;;;;17.58;86.97;100122.28;4975823;28;20227;-72
2022/07/27 02:33:45;;;;;;;2.10;1.60;;;;;;;17.62;86.66;100111.63;4990565;28;20191;-72
2022/07/27 02:36:10;;;;;;;3.57;1.50;;;;;;;17.74;85.93;100113.19;4975398;28;20267;-74
2022/07/27 02:38:36;;;;;;;2.07;1.20;;;;;;;17.79;85.45;100115.41;4975550;28;20192;-73
2022/07/27 02:41:01;;;;;;;2.67;1.50;;;;;;;17.84;85.35;100113.25;4959126;28;20235;-74
2022/07/27 02:43:26;;;;;;;2.07;1.10;;;;;;;17.78;85.63;100116.38;4990656;28;20199;-74
2022/07/27 02:45:51;;;;;;;2.03;1.30;;;;;;;17.78;85.79;100116.38;4975685;28;20184;-74
2022/07/27 02:48:17;;;;;;;2.50;1.53;;;;;;;17.84;85.41;100116.66;4974792;28;20192;-74
2022/07/27 02:50:42;;;;;;;2.10;1.03;;;;;;;17.86;85.32;100119.97;4970104;28;20686;-74
2022/07/27 02:53:07;;;;;;;2.97;1.10;;;;;;;17.85;85.16;100110.50;4985471;28;20638;-74
2022/07/27 02:55:33;;;;;;;1.80;1.20;;;;;;;17.83;85.39;100119.41;4975640;28;20731;-72
2022/07/27 02:57:58;;;;;;;2.03;1.53;;;;;;;17.93;84.89;100120.25;4973839;28;20238;-71
2022/07/27 03:00:24;;;;;;;5.20;1.47;;;;;;;17.88;84.67;100128.44;4956460;28;20299;-75
2022/07/27 03:02:49;;;;;;;2.73;1.30;;;;;;;17.88;84.82;100119.81;4973604;28;20294;-72
2022/07/27 03:05:15;;;;;;;4.17;1.43;;;;;;;17.87;84.75;100123.38;4975170;28;20204;-72
2022/07/27 03:07:40;;;;;;;3.40;1.83;;;;;;;17.94;84.61;100115.91;4974157;28;20347;-72
2022/07/27 03:10:06;;;;;;;2.17;1.20;;;;;;;17.94;84.27;100114.13;4963419;28;20282;-73
2022/07/27 03:12:31;;;;;;;2.10;1.20;;;;;;;18.11;83.63;100111.84;4973940;28;20208;-73
2022/07/27 03:14:57;;;;;;;4.47;1.40;;;;;;;17.90;83.87;100108.34;4974323;28;20662;-73
2022/07/27 03:17:22;;;;;;;2.97;1.30;;;;;;;17.99;84.32;100108.53;4973937;28;20234;-73
2022/07/27 03:19:48;;;;;;;2.53;1.03;;;;;;;18.00;84.49;100115.41;4969863;28;20188;-73
2022/07/27 03:22:14;;;;;;;3.50;1.13;;;;;;;18.14;83.13;100114.22;4978356;28;20297;-73
2022/07/27 03:24:39;;;;;;;2.73;0.93;;;;;;;17.99;83.19;100122.38;4989898;28;20231;-73
2022/07/27 03:27:04;;;;;;;1.80;1.17;;;;;;;17.87;84.93;100119.03;4974850;28;20643;-73
2022/07/27 03:29:30;;;;;;;3.00;1.30;;;;;;;18.00;84.05;100123.22;4973169;28;20191;-73
2022/07/27 03:31:55;;;;;;;4.57;1.37;;;;;;;17.86;84.36;100124.31;4947168;28;20696;-73
2022/07/27 03:34:20;;;;;;;2.67;1.30;;;;;;;17.91;84.55;100120.41;4975472;28;20188;-73
2022/07/27 03:36:46;;;;;;;2.67;1.20;;;;;;;17.94;83.97;100116.72;4974949;28;20254;-73
2022/07/27 03:39:12;;;;;;;2.87;1.17;;;;;;;17.77;84.31;100117.31;4988758;28;20623;-73
2022/07/27 03:41:37;;;;;;;2.20;1.13;;;;;;;17.84;85.19;100123.66;4963158;28;20258;-73
2022/07/27 03:44:03;;;;;;;2.07;1.30;;;;;;;17.97;84.30;100123.44;4989336;28;20208;-73
2022/07/27 03:46:28;;;;;;;2.60;1.20;;;;;;;18.02;83.37;100116.06;4974423;28;20176;-73
2022/07/27 03:48:55;;;;;;;2.30;1.10;;;;;;;17.95;83.78;100123.59;4972472;28;20184;-73
2022/07/27 03:51:21;;;;;;;2.63;1.30;;;;;;;17.81;83.80;100121.28;4982271;28;20231;-72
2022/07/27 03:53:47;;;;;;;4.20;1.10;;;;;;;17.54;85.68;100115.69;4979527;28;20597;-73
2022/07/27 03:56:12;;;;;;;2.50;1.00;;;;;;;17.46;86.70;100117.28;4988978;28;20581;-73
2022/07/27 03:58:37;;;;;;;3.03;1.07;;;;;;;17.52;86.52;100119.38;4972565;28;20175;-72
2022/07/27 04:01:02;;;;;;;4.90;1.50;;;;;;;17.53;86.35;100123.63;4970766;28;20725;-73
2022/07/27 04:03:28;;;;;;;1.30;1.20;;;;;;;17.53;86.37;100118.44;4981265;28;20212;-73
2022/07/27 04:05:53;;;;;;;3.93;1.83;;;;;;;17.69;85.27;100124.00;4974357;28;20401;-73
2022/07/27 04:08:20;;;;;;;3.00;0.97;;;;;;;17.63;85.02;100119.31;4974174;28;20231;-73
2022/07/27 04:10:46;;;;;;;5.73;1.03;;;;;;;17.65;85.00;100122.59;4969705;28;20276;-72
2022/07/27 04:13:11;;;;;;;2.60;1.27;;;;;;;17.77;84.90;100131.13;4988834;28;20659;-73
2022/07/27 04:15:37;;;;;;;2.77;1.20;;;;;;;17.80;84.95;100130.91;4974061;28;20299;-73
2022/07/27 04:18:02;;;;;;;2.30;1.13;;;;;;;17.77;85.26;100136.34;4973629;28;20239;-73
2022/07/27 04:20:28;;;;;;;3.23;1.20;;;;;;;17.92;83.89;100136.81;4966770;28;20238;-73
2022/07/27 04:22:54;;;;;;;4.13;1.27;;;;;;;17.94;84.60;100144.53;4985572;28;20222;-73
2022/07/27 04:25:20;;;;;;;3.67;1.47;;;;;;;17.73;85.70;100135.78;4973786;28;20271;-73
2022/07/27 04:27:45;;;;;;;2.87;1.40;;;;;;;17.90;85.68;100143.94;4973816;28;20185;-73
2022/07/27 04:30:11;;;;;;;5.03;1.70;;;;;;;17.88;85.96;100138.84;4963968;28;20279;-73
2022/07/27 04:32:37;;;;;;;1.53;1.40;;;;;;;17.97;85.39;100145.09;4987293;28;20263;-73
2022/07/27 04:35:03;;;;;;;3.57;1.27;;;;;;;17.91;85.51;100143.81;4974000;28;20206;-73
2022/07/27 04:37:29;;;;;;;2.87;1.40;;;;;;;17.98;85.10;100144.13;4973691;28;20176;-73
2022/07/27 04:39:57;;;;;;;4.17;1.50;;;;;;;17.93;85.10;100148.88;4965747;28;20180;-74
2022/07/27 04:42:23;;;;;;;3.50;1.50;;;;;;;17.84;86.20;100141.88;4955792;28;20223;-74
2022/07/27 04:44:48;;;;;;;4.00;1.70;;;;;;;17.94;86.27;100141.91;4972103;28;20542;-74
2022/07/27 04:47:14;;;;;;;9.77;1.47;;;;;;;17.92;86.06;100144.63;4973600;28;20183;-74
2022/07/27 04:49:39;;;;;;;2.97;1.40;;;;;;;17.93;86.87;100151.47;4973041;28;20226;-74
2022/07/27 04:52:04;;;;;;;2.97;1.30;;;;;;;18.03;85.67;100143.75;4978143;28;20231;-74
2022/07/27 04:54:29;;;;;;;3.27;1.30;;;;;;;17.87;86.51;100150.25;4973174;28;20203;-74
2022/07/27 04:56:55;;;;;;;2.50;1.20;;;;;;;17.80;87.76;100143.91;4988271;28;20188;-74
2022/07/27 04:59:20;;;;;;;5.00;1.70;;;;;;;17.95;86.79;100147.00;4972815;28;20191;-74
2022/07/27 05:01:45;;;;;;;4.07;1.80;;;;;;;18.05;85.73;100160.06;4975934;28;20573;-74
2022/07/27 05:04:10;;;;;;;3.77;1.47;;;;;;;18.05;85.75;100154.88;4975645;28;20180;-74
2022/07/27 05:06:36;;;;;;;5.60;1.67;;;;;;;18.12;85.42;100161.19;4973111;28;20625;-74
2022/07/27 05:09:02;;;;;;;4.63;1.30;;;;;;;18.14;84.73;100156.66;4972434;28;20220;-74
2022/07/27 05:11:27;;;;;;;3.73;1.50;;;;;;;18.07;84.98;100165.94;4973697;28;20223;-73
2022/07/27 05:13:53;;;;;;;2.03;1.40;;;;;;;18.04;85.97;100159.22;4971807;28;20226;-73
2022/07/27 05:16:18;;;;;;;3.73;1.60;;;;;;;17.77;86.81;100158.94;4971500;28;20640;-73
2022/07/27 05:18:44;;;;;;;6.37;1.40;;;;;;;17.79;87.37;100162.25;4972947;28;20526;-74
2022/07/27 05:21:10;;;;;;;3.80;1.40;;;;;;;17.74;87.69;100163.44;4964848;28;20619;-73
2022/07/27 05:23:35;;;;;;;5.07;2.07;;;;;;;17.95;86.64;100169.59;4979508;28;20354;-74
2022/07/27 05:26:01;;;;;;;3.60;1.70;;;;;;;18.17;85.14;100172.03;4973371;28;20188;-74
2022/07/27 05:28:26;;;;;;;1.77;1.27;;;;;;;18.36;82.33;100171.28;4973182;28;20184;-74
2022/07/27 05:30:52;;;;;;;6.47;1.63;;;;;;;18.22;82.92;100171.63;4964941;28;20713;-74
2022/07/27 05:33:17;;;;;;;3.43;1.47;;;;;;;18.19;82.91;100177.09;4981702;28;20195;-74
2022/07/27 05:35:43;;;;;;;2.93;1.40;;;;;;;18.37;82.09;100178.13;4972925;28;20191;-74
2022/07/27 05:38:08;;;;;;;4.53;3.10;;;;;;;18.54;81.65;100181.03;4987591;28;20180;-74
2022/07/27 05:40:33;;;;;;;6.13;1.80;;;;;;;18.62;79.08;100191.63;4953067;28;20227;-74
2022/07/27 05:42:59;;;;;;;4.10;1.90;;;;;;;18.36;78.59;100186.91;4981260;28;20207;-74
2022/07/27 05:45:25;;;;;;;7.40;2.07;;;;;;;18.57;78.58;100187.75;4973146;28;20195;-73
2022/07/27 05:47:50;;;;;;;7.13;2.20;;;;;;;18.64;75.99;100189.72;4971333;28;20423;-73
2022/07/27 05:50:16;;;;;;;8.40;2.20;;;;;;;18.79;74.01;100195.38;4962711;28;20649;-73
2022/07/27 05:52:42;;;;;;;5.63;1.97;;;;;;;18.76;73.36;100200.84;4985911;28;20639;-73
2022/07/27 05:55:08;;;;;;;5.87;2.10;;;;;;;18.63;73.23;100195.88;4971382;28;20180;-73
2022/07/27 05:57:34;;;;;;;4.50;1.97;;;;;;;18.53;73.30;100206.28;4971709;28;20264;-73
2022/07/27 06:00:00;;;;;;;9.70;2.77;;;;;;;18.41;74.51;100209.94;4972925;28;20674;-73
2022/07/27 06:02:26;;;;;;;7.53;2.23;;;;;;;18.35;74.47;100202.66;4978098;28;20227;-74
2022/07/27 06:04:53;;;;;;;5.37;1.80;;;;;;;18.49;72.80;100206.66;4971512;28;20195;-74
2022/07/27 06:10:04;;;;;;;6.70;2.00;;;;;;;18.59;72.66;100209.31;4963317;28;20721;-74
2022/07/27 06:12:36;;;;;;;9.10;3.70;;;;;;;18.63;72.44;100208.91;4986872;28;21031;-74
2022/07/27 06:15:02;;;;;;;5.67;2.53;;;;;;;18.54;71.85;100214.91;4972419;28;20188;-74
2022/07/27 06:17:27;;;;;;;3.87;1.80;;;;;;;18.74;71.19;100210.56;4971639;28;20203;-74
2022/07/27 06:19:52;;;;;;;6.40;4.10;;;;;;;19.17;70.13;100219.03;4971518;28;20187;-74
2022/07/27 06:22:18;;;;;;;5.83;3.67;;;;;;;19.45;68.54;100227.81;4961798;28;20235;-74
2022/07/27 06:24:43;;;;;;;9.17;1.90;;;;;;;19.17;68.53;100234.66;4975482;28;20279;-74
2022/07/27 06:27:09;;;;;;;6.43;1.87;;;;;;;18.82;69.86;100234.19;4974503;28;20547;-74
2022/07/27 06:29:34;;;;;;;5.33;2.07;;;;;;;18.85;70.82;100236.53;4990389;28;20187;-74
2022/07/27 06:31:59;;;;;;;7.33;2.03;;;;;;;19.00;70.24;100231.78;4967804;28;20238;-75
2022/07/27 06:34:24;;;;;;;7.53;1.73;;;;;;;19.09;69.31;100237.97;4974796;28;20266;-72
2022/07/27 06:36:51;;;;;;;6.13;2.07;;;;;;;19.45;67.98;100227.81;4974515;28;20192;-73
2022/07/27 06:39:17;;;;;;;5.90;2.17;;;;;;;20.58;63.56;100234.94;4974181;28;20177;-73
2022/07/27 06:41:42;;;;;;;5.27;1.97;;;;;;;20.91;58.90;100223.09;4954491;28;20241;-73
2022/07/27 06:44:07;;;;;;;5.93;1.73;;;;;;;21.07;56.58;100227.66;4990224;28;20184;-74
2022/07/27 06:46:33;;;;;;;9.17;2.23;;;;;;;22.09;53.17;100222.84;4975634;28;20180;-74
2022/07/27 06:48:58;;;;;;;3.63;1.57;;;;;;;23.87;46.73;100224.47;4973965;28;20267;-75
2022/07/27 06:51:23;;;;;;;7.87;2.10;;;;;;;23.52;46.86;100226.50;4967231;28;20318;-75
2022/07/27 06:53:53;;;;;;;5.63;2.17;;;;;;;23.06;48.45;100232.19;4980633;28;20188;-75
2022/07/27 06:56:19;;;;;;;7.53;2.10;;;;;;;21.99;51.63;100239.66;4989922;28;20208;-77
2022/07/27 06:58:44;;;;;;;8.40;1.83;;;;;;;21.22;55.89;100232.34;4973781;28;20635;-76
2022/07/27 07:01:10;;;;;;;13.77;2.23;;;;;;;20.36;59.49;100231.75;4957650;28;20249;-75
2022/07/27 07:03:35;;;;;;;5.20;1.63;;;;;;;20.64;59.20;100235.19;4981754;28;20294;-75
2022/07/27 07:06:00;;;;;;;7.50;1.93;;;;;;;21.66;54.25;100236.84;4975180;28;20620;-74
2022/07/27 07:08:26;;;;;;;5.53;1.60;;;;;;;21.68;54.08;100234.88;4973678;28;20679;-73
2022/07/27 07:10:51;;;;;;;8.60;1.90;;;;;;;22.02;53.51;100241.97;4970777;28;20234;-74
2022/07/27 07:13:16;;;;;;;5.27;1.87;;;;;;;22.76;50.50;100228.38;4973926;28;20275;-74
2022/07/27 07:15:42;;;;;;;4.27;1.90;;;;;;;24.33;45.17;100235.19;4970318;28;20227;-75
2022/07/27 07:18:09;;;;;;;6.17;1.70;;;;;;;25.32;42.57;100241.72;4984824;28;20206;-76
2022/07/27 07:20:35;;;;;;;6.10;1.80;;;;;;;25.04;43.11;100242.22;4966292;28;20293;-74
2022/07/27 07:23:01;;;;;;;5.63;1.65;;;;;;;24.63;43.42;100247.72;4973636;28;20215;-74
2022/07/27 07:25:27;;;;;;;5.82;1.63;;;;;;;24.80;43.01;100233.50;4973506;28;20714;-74
2022/07/27 07:27:54;;;;;;;6.30;1.67;;;;;;;25.17;41.59;100249.56;4989709;28;20192;-74
2022/07/27 07:30:19;;;;;;;6.28;1.88;;;;;;;25.28;41.60;100251.78;4946789;28;20674;-75
2022/07/27 07:32:45;;;;;;;4.20;1.60;;;;;;;25.07;41.73;100260.31;4973710;28;20185;-76
2022/07/27 07:35:11;;;;;;;5.93;2.00;;;;;;;23.05;46.46;100260.22;4989461;28;20192;-75
2022/07/27 07:37:36;;;;;;;14.73;2.30;;;;;;;23.05;47.42;100259.41;4974984;28;20181;-74
2022/07/27 07:40:04;;;;;;;6.47;1.87;;;;;;;23.34;46.33;100250.28;4965810;28;20416;-71
2022/07/27 07:42:29;;;;;;;6.63;2.10;;;;;;;23.97;45.01;100248.78;4983051;28;20222;-74
2022/07/27 07:44:55;;;;;;;5.23;1.70;;;;;;;23.98;44.21;100250.41;4973294;28;20755;-75
2022/07/27 07:47:21;;;;;;;17.90;2.60;;;;;;;24.77;42.05;100248.81;4973381;28;20601;-76
2022/07/27 07:49:46;;;;;;;7.47;2.13;;;;;;;24.82;41.61;100249.13;4974086;28;20647;-75
2022/07/27 07:52:12;;;;;;;9.57;2.13;;;;;;;24.41;42.21;100249.28;4979610;28;20223;-75
2022/07/27 07:54:37;;;;;;;5.23;1.77;;;;;;;24.28;42.17;100242.75;4973044;28;20220;-76
2022/07/27 07:57:03;;;;;;;4.10;1.67;;;;;;;24.68;41.64;100237.53;4974437;28;20647;-75
2022/07/27 07:59:28;;;;;;;5.22;1.75;;;;;;;24.88;40.94;100234.44;4988695;28;20195;-76
2022/07/27 08:01:53;;;;;;;13.65;2.40;;;;;;;24.97;39.77;100238.69;4978522;28;20238;-75
2022/07/27 08:04:19;;;;;;;6.95;2.17;;;;;;;25.77;37.93;100239.19;4972825;28;20188;-76
2022/07/27 08:06:45;;;;;;;12.02;2.63;;;;;;;26.66;36.24;100234.88;4989053;28;20607;-76
2022/07/27 08:09:11;;;;;;;5.00;1.85;;;;;;;26.45;35.63;100241.75;4973994;28;20227;-75
2022/07/27 08:11:37;;;;;;;4.53;1.48;;;;;;;27.25;34.77;100233.03;4982260;28;20318;-75
2022/07/27 08:14:03;;;;;;;3.30;1.35;;;;;;;26.66;35.25;100230.41;4976977;28;20639;-75
2022/07/27 08:16:28;;;;;;;2.55;1.58;;;;;;;28.41;32.38;100239.72;4989020;28;20188;-75
2022/07/27 08:18:54;;;;;;;4.95;1.55;;;;;;;28.87;30.86;100240.88;4973340;28;20198;-76
2022/07/27 08:21:19;;;;;;;4.32;1.40;;;;;;;29.43;30.81;100243.16;4973850;28;20234;-75
2022/07/27 08:23:44;;;;;;;8.93;1.58;;;;;;;29.99;29.08;100245.56;4965489;28;20238;-75
2022/07/27 08:26:10;;;;;;;4.53;1.33;;;;;;;30.93;28.78;100232.66;4973609;28;20195;-76
2022/07/27 08:28:35;;;;;;;4.50;1.58;;;;;;;30.28;28.37;100244.25;4973143;28;20723;-75
2022/07/27 08:31:01;;;;;;;6.38;1.80;;;;;;;30.13;29.71;100243.66;4965824;28;20241;-75
2022/07/27 08:33:26;;;;;;;4.22;1.40;;;;;;;29.77;29.81;100238.66;4981228;28;20617;-74
2022/07/27 08:35:52;;;;;;;3.88;1.55;;;;;;;27.73;32.12;100248.28;4972266;28;20176;-76
2022/07/27 08:38:17;;;;;;;5.43;1.95;;;;;;;27.42;33.55;100244.19;4973759;28;20551;-75
2022/07/27 08:40:42;;;;;;;5.00;1.75;;;;;;;26.27;35.21;100239.47;4956058;28;20240;-74
2022/07/27 08:43:09;;;;;;;5.45;1.92;;;;;;;24.93;38.39;100247.91;4982300;28;20208;-76
2022/07/27 08:45:36;;;;;;;5.40;1.70;;;;;;;24.49;38.81;100244.00;4988472;28;20199;-75
2022/07/27 08:48:02;;;;;;;3.75;1.92;;;;;;;25.49;37.09;100244.22;4971668;28;20176;-74
2022/07/27 08:50:29;;;;;;;5.70;1.85;;;;;;;27.09;33.25;100234.13;4966405;28;20254;-75
2022/07/27 08:53:05;;;;;;;4.00;2.15;;;;;;;25.54;35.57;100247.13;4988042;28;20184;-75
2022/07/27 08:55:32;;;;;;;3.55;1.58;;;;;;;24.32;37.51;100236.19;4988727;28;20222;-75
2022/07/27 08:57:58;;;;;;;3.03;1.70;;;;;;;26.33;34.98;100238.75;4972954;28;20194;-74
2022/07/27 09:00:25;;;;;;;3.75;1.70;;;;;;;26.47;33.61;100241.56;4965853;28;20254;-76
2022/07/27 09:02:50;;;;;;;7.25;1.80;;;;;;;25.98;35.06;100240.31;4971963;28;20219;-75
2022/07/27 09:05:16;;;;;;;6.32;1.80;;;;;;;25.00;35.95;100234.88;4971972;28;20191;-76
2022/07/27 09:07:41;;;;;;;5.32;1.80;;;;;;;24.69;36.05;100233.91;4973046;28;20669;-76
2022/07/27 09:10:07;;;;;;;4.88;1.77;;;;;;;25.14;36.10;100223.56;4978065;28;20311;-76
2022/07/27 09:12:34;;;;;;;4.03;1.60;;;;;;;24.96;36.26;100229.16;4988311;28;20184;-75
2022/07/27 09:15:11;;;;;;;3.80;1.40;;;;;;;25.93;34.94;100222.41;4973202;28;20187;-76
2022/07/27 09:17:38;;;;;;;6.43;1.92;;;;;;;27.80;31.35;100233.28;4971950;28;20230;-75
2022/07/27 09:20:06;;;;;;;4.25;1.58;;;;;;;27.89;30.60;100233.94;4977531;28;20180;-76
2022/07/27 09:22:49;;;;;;;4.55;1.60;;;;;;;27.82;31.18;100233.88;4971911;28;20290;-75
2022/07/27 09:25:17;;;;;;;5.72;1.70;;;;;;;28.57;29.62;100236.69;4973199;28;20188;-76
2022/07/27 09:27:44;;;;;;;10.95;2.33;;;;;;;28.99;28.76;100233.97;4971855;28;20187;-76
2022/07/27 09:30:13;;;;;;;3.35;1.50;;;;;;;29.30;27.81;100246.63;4963395;28;20195;-76
2022/07/27 09:32:52;;;;;;;6.47;2.00;;;;;;;30.59;26.13;100240.03;4986382;28;20204;-76
2022/07/27 09:35:24;;;;;;;4.30;1.40;;;;;;;30.49;26.45;100235.19;4972907;28;20171;-76
2022/07/27 09:37:49;;;;;;;4.70;1.85;;;;;;;29.09;28.32;100237.03;4979838;28;20655;-76
2022/07/27 09:40:21;;;;;;;6.03;1.67;;;;;;;27.62;29.71;100239.03;4962159;28;20200;-77
2022/07/27 09:42:47;;;;;;;4.72;1.80;;;;;;;26.45;31.91;100235.66;4967333;28;20211;-75
2022/07/27 09:45:33;;;;;;;4.28;1.58;;;;;;;26.09;32.81;100237.25;4971420;28;20235;-76
2022/07/27 09:48:19;;;;;;;3.58;1.50;;;;;;;25.91;33.40;100235.75;4972882;28;20204;-76
2022/07/27 09:50:59;;;;;;;4.25;1.75;;;;;;;25.78;34.15;100235.56;4967937;28;20317;-77
2022/07/27 09:53:27;;;;;;;8.02;1.85;;;;;;;26.66;32.67;100233.06;4971241;28;20190;-76
2022/07/27 09:56:06;;;;;;;4.28;1.70;;;;;;;26.62;31.15;100231.81;4971386;28;20226;-76
2022/07/27 09:58:48;;;;;;;8.15;1.63;;;;;;;24.76;33.81;100234.84;4975436;28;20199;-75
2022/07/27 10:01:18;;;;;;;3.10;1.42;;;;;;;23.99;36.05;100238.94;4968707;28;20266;-75
2022/07/27 10:03:44;;;;;;;3.80;1.60;;;;;;;22.97;38.18;100234.00;4981908;28;20204;-74
2022/07/27 10:06:10;;;;;;;4.53;1.83;;;;;;;23.22;38.34;100241.94;4974720;28;20212;-75
2022/07/27 10:08:38;;;;;;;2.27;1.40;;;;;;;22.99;38.00;100236.44;4974335;28;20270;-75
2022/07/27 10:11:04;;;;;;;3.90;1.90;;;;;;;23.26;38.81;100235.38;4984500;28;20231;-74
2022/07/27 10:13:29;;;;;;;4.63;1.50;;;;;;;23.30;37.36;100241.91;4975059;28;20572;-74
2022/07/27 10:15:55;;;;;;;4.07;1.73;;;;;;;23.29;37.87;100228.97;4991308;28;20207;-75
2022/07/27 10:18:50;;;;;;;3.83;1.60;;;;;;;23.90;37.48;100226.75;4990586;28;20196;-75
2022/07/27 10:21:15;;;;;;;3.00;1.40;;;;;;;24.53;36.34;100226.09;4974889;28;20250;-75
2022/07/27 10:23:55;;;;;;;4.30;1.40;;;;;;;24.33;35.39;100229.94;4981779;28;20212;-74
2022/07/27 10:26:24;;;;;;;6.20;1.63;;;;;;;23.63;36.61;100241.91;4975918;28;20658;-74
2022/07/27 10:28:58;;;;;;;4.50;1.70;;;;;;;23.32;38.15;100234.72;4975233;28;20328;-75
2022/07/27 10:31:29;;;;;;;3.73;1.50;;;;;;;23.85;37.09;100236.94;4968256;28;20235;-75
2022/07/27 10:34:00;;;;;;;3.97;1.73;;;;;;;23.99;35.75;100246.81;4974566;28;20206;-76
2022/07/27 10:36:28;;;;;;;4.07;1.70;;;;;;;23.54;36.88;100235.00;4974836;28;20172;-75
2022/07/27 10:38:56;;;;;;;4.33;1.97;;;;;;;23.26;37.52;100245.84;4973952;28;20180;-74
2022/07/27 10:41:27;;;;;;;3.93;1.53;;;;;;;23.21;37.29;100248.16;4970075;28;20227;-73
2022/07/27 10:44:17;;;;;;;5.57;2.23;;;;;;;23.66;36.65;100240.75;4974549;28;20190;-74
2022/07/27 10:47:03;;;;;;;4.73;2.13;;;;;;;24.33;35.77;100247.53;4974473;28;20203;-74
2022/07/27 10:49:31;;;;;;;11.93;10.30;;;;;;;24.31;35.51;100246.84;4989625;28;20662;-73
2022/07/27 10:51:58;;;;;;;5.90;3.93;;;;;;;25.93;34.36;100235.56;4983545;28;20227;-70
2022/07/27 10:54:37;;;;;;;8.40;3.58;;;;;;;26.90;32.09;100239.00;4976243;28;20207;-75
2022/07/27 10:57:05;;;;;;;5.65;1.73;;;;;;;26.46;32.38;100240.75;4990549;28;20183;-74
2022/07/27 10:59:36;;;;;;;2.97;1.95;;;;;;;25.53;33.07;100246.34;4974962;28;20283;-73
2022/07/27 11:02:03;;;;;;;7.07;1.58;;;;;;;24.65;34.85;100245.78;4954146;28;20718;-75
2022/07/27 11:04:30;;;;;;;4.18;1.95;;;;;;;24.99;35.05;100239.31;4973957;28;20243;-74
2022/07/27 11:06:59;;;;;;;6.28;3.38;;;;;;;26.42;33.93;100236.84;4975451;28;20208;-75
2022/07/27 11:09:43;;;;;;;6.97;2.17;;;;;;;27.08;31.35;100233.31;4989086;28;20583;-76
2022/07/27 11:12:10;;;;;;;4.72;1.45;;;;;;;25.90;32.65;100241.19;4980112;28;20219;-74
2022/07/27 11:14:44;;;;;;;3.72;1.67;;;;;;;24.43;35.01;100232.34;4989869;28;20591;-74
2022/07/27 11:17:09;;;;;;;6.63;2.85;;;;;;;23.71;36.51;100233.19;4966300;28;20706;-73
2022/07/27 11:19:35;;;;;;;5.13;2.40;;;;;;;24.22;36.20;100237.38;4974821;28;20183;-73
2022/07/27 11:22:02;;;;;;;5.67;1.70;;;;;;;23.93;36.37;100231.72;4979538;28;20231;-74
2022/07/27 11:24:27;;;;;;;4.73;1.77;;;;;;;23.72;36.56;100226.16;4975311;28;20184;-74
2022/07/27 11:26:53;;;;;;;6.07;1.70;;;;;;;24.04;35.85;100235.81;4973533;28;20639;-73
2022/07/27 11:29:21;;;;;;;5.60;2.97;;;;;;;24.43;36.31;100221.03;4973018;28;20330;-73